Time;durP1;ratioP1;P1;durP2;ratioP2;P2;SDS_P1;SDS_P2;PMS_P1;PMS_P2;Temp;Humidity;BMP_temperature;BMP_pressure;BME280_temperature;BME280_humidity;BME280_pressure;Samples;Min_cycle;Max_cycle;Signal;HPM_P1;HPM_P2
2022/09/02 04:01:03;;;;;;;4.67;4.10;;;9.90;96.30;;;;;;5683719;23;20531;-75
2022/09/02 04:03:29;;;;;;;3.10;2.57;;;9.90;96.30;;;;;;5010786;28;20935;-74
2022/09/02 04:05:54;;;;;;;2.67;2.00;;;9.80;96.30;;;;;;5003621;28;20432;-77
2022/09/02 04:08:20;;;;;;;6.47;3.77;;;9.80;96.30;;;;;;5011570;28;20181;-74
2022/09/02 04:10:45;;;;;;;8.20;4.73;;;9.80;96.30;;;;;;5011604;28;20878;-74
2022/09/02 04:13:11;;;;;;;2.37;1.70;;;9.90;96.30;;;;;;5011348;28;20200;-75
2022/09/02 04:15:43;;;;;;;4.03;2.20;;;9.90;96.30;;;;;;5012489;28;20169;-74
2022/09/02 04:18:10;;;;;;;2.30;1.80;;;9.90;96.30;;;;;;5005683;28;20177;-74
2022/09/02 04:23:11;;;;;;;2.50;1.63;;;9.80;96.30;;;;;;5045792;23;20533;-75
2022/09/02 04:25:41;;;;;;;2.87;1.40;;;9.80;96.30;;;;;;5015382;28;20415;-74
2022/09/02 04:28:07;;;;;;;3.57;1.23;;;9.80;96.30;;;;;;5022696;28;20172;-76
2022/09/02 04:30:32;;;;;;;3.03;1.53;;;9.70;96.30;;;;;;5013209;28;20442;-74
2022/09/02 04:32:58;;;;;;;5.43;1.43;;;9.50;96.30;;;;;;5013086;28;20180;-76
2022/09/02 04:35:23;;;;;;;6.57;1.80;;;9.20;96.30;;;;;;5003591;28;20979;-75
2022/09/02 04:37:49;;;;;;;3.67;1.60;;;9.10;96.30;;;;;;5032583;28;20630;-74
2022/09/02 04:40:14;;;;;;;8.53;2.30;;;9.00;96.30;;;;;;5014419;28;20656;-76
2022/09/02 04:42:40;;;;;;;6.77;1.67;;;9.10;96.30;;;;;;5032314;28;20207;-76
2022/09/02 04:45:06;;;;;;;2.07;1.50;;;9.20;96.30;;;;;;5032779;28;20540;-76
2022/09/02 04:47:32;;;;;;;3.93;1.57;;;9.20;96.30;;;;;;5031763;28;20295;-76
2022/09/02 04:49:57;;;;;;;1.30;1.10;;;9.10;96.30;;;;;;5031980;28;20484;-76
2022/09/02 04:52:23;;;;;;;3.17;1.70;;;9.20;96.30;;;;;;5014253;28;20208;-76
2022/09/02 04:54:49;;;;;;;2.27;1.43;;;9.30;96.30;;;;;;5031603;28;20291;-77
2022/09/02 04:57:14;;;;;;;3.93;1.40;;;9.20;96.30;;;;;;5031613;28;20180;-75
2022/09/02 04:59:40;;;;;;;1.57;1.40;;;9.20;96.30;;;;;;5012651;28;20173;-74
2022/09/02 05:02:05;;;;;;;3.30;1.53;;;9.40;96.30;;;;;;5021878;28;20319;-74
2022/09/02 05:04:32;;;;;;;2.17;1.27;;;9.40;96.30;;;;;;5032383;28;20228;-74
2022/09/02 05:07:00;;;;;;;2.20;1.57;;;9.50;96.30;;;;;;5014713;28;20168;-74
2022/09/02 05:09:27;;;;;;;9.80;1.27;;;9.70;96.30;;;;;;5014046;28;20426;-74
2022/09/02 05:11:56;;;;;;;2.40;1.13;;;9.90;96.30;;;;;;5032247;28;20430;-76
2022/09/02 05:14:23;;;;;;;3.53;1.50;;;10.20;96.30;;;;;;5032077;28;20415;-74
2022/09/02 05:16:52;;;;;;;3.20;1.60;;;10.40;96.30;;;;;;5032183;28;20410;-74
2022/09/02 05:19:20;;;;;;;3.40;1.30;;;10.60;96.30;;;;;;5031614;28;20415;-74
2022/09/02 05:21:46;;;;;;;2.60;1.50;;;11.00;96.30;;;;;;5031816;28;20499;-74
2022/09/02 05:24:12;;;;;;;6.83;2.00;;;11.80;96.30;;;;;;5032086;28;20494;-74
2022/09/02 05:26:39;;;;;;;5.80;1.60;;;12.70;96.30;;;;;;5031968;28;20442;-75
2022/09/02 05:29:08;;;;;;;2.60;1.60;;;13.80;96.30;;;;;;5031471;28;20226;-74
2022/09/02 05:31:34;;;;;;;2.20;1.13;;;14.90;96.30;;;;;;5013580;28;20457;-75
2022/09/02 05:33:59;;;;;;;3.00;1.00;;;15.70;96.30;;;;;;5036161;28;20414;-76
2022/09/02 05:36:25;;;;;;;1.97;1.20;;;15.90;96.30;;;;;;5039767;28;20175;-76
2022/09/02 05:38:50;;;;;;;2.50;0.93;;;17.20;96.30;;;;;;5031507;28;20184;-76
2022/09/02 05:41:22;;;;;;;1.97;1.10;;;17.60;96.30;;;;;;5029455;28;20200;-77
2022/09/02 05:43:49;;;;;;;3.63;1.33;;;17.50;96.30;;;;;;5030548;28;20171;-76
2022/09/02 05:46:17;;;;;;;2.33;1.10;;;17.40;96.30;;;;;;5010818;28;20415;-75
2022/09/02 05:51:29;;;;;;;1.93;1.30;;;17.70;96.30;;;;;;5030631;28;20489;-76
2022/09/02 05:53:56;;;;;;;1.67;1.17;;;18.40;96.30;;;;;;5027902;28;20415;-78
2022/09/02 05:56:22;;;;;;;2.13;1.50;;;19.10;96.30;;;;;;5009515;28;20422;-78
2022/09/02 05:58:48;;;;;;;5.73;1.30;;;18.80;96.30;;;;;;5003084;28;20418;-77
2022/09/02 06:01:16;;;;;;;7.33;1.20;;;19.50;96.30;;;;;;5001291;28;21121;-78
2022/09/02 06:03:42;;;;;;;1.60;1.03;;;19.30;96.10;;;;;;5008760;28;20426;-78
2022/09/02 06:06:08;;;;;;;4.07;1.37;;;19.50;94.00;;;;;;5027213;28;20842;-78
2022/09/02 06:08:34;;;;;;;2.23;1.10;;;19.70;95.20;;;;;;5016879;28;20183;-75
2022/09/02 06:11:00;;;;;;;3.13;1.40;;;20.00;92.30;;;;;;5011558;28;20510;-75
2022/09/02 06:13:27;;;;;;;1.83;1.20;;;19.90;94.00;;;;;;5028935;28;20207;-75
2022/09/02 06:15:54;;;;;;;3.23;1.37;;;20.10;93.30;;;;;;5026755;28;20505;-77
2022/09/02 06:18:19;;;;;;;1.83;1.20;;;20.40;92.20;;;;;;5024506;28;20423;-77
2022/09/02 06:20:46;;;;;;;4.33;1.20;;;21.00;91.60;;;;;;5028961;28;20519;-77
2022/09/02 06:23:13;;;;;;;2.80;1.20;;;21.40;88.50;;;;;;5029471;28;20195;-77
2022/09/02 06:25:41;;;;;;;3.77;1.30;;;21.50;88.10;;;;;;5026168;28;20417;-77
2022/09/02 06:28:07;;;;;;;3.27;1.27;;;21.70;87.70;;;;;;5030223;28;20782;-77
2022/09/02 06:30:33;;;;;;;2.60;1.10;;;21.20;88.20;;;;;;5030019;28;20442;-78
2022/09/02 06:32:58;;;;;;;1.33;1.00;;;21.00;89.00;;;;;;5022342;28;20414;-77
2022/09/02 06:35:24;;;;;;;7.63;1.30;;;20.00;91.70;;;;;;5011360;28;20180;-77
2022/09/02 06:37:50;;;;;;;2.03;1.10;;;21.00;89.60;;;;;;5009353;28;21074;-77
2022/09/02 06:40:18;;;;;;;1.60;1.07;;;20.90;89.30;;;;;;5004675;28;20204;-77
2022/09/02 06:42:43;;;;;;;2.93;1.27;;;21.00;90.50;;;;;;5008061;28;20192;-77
2022/09/02 06:45:09;;;;;;;3.30;1.00;;;22.40;86.50;;;;;;5014290;28;20418;-77
2022/09/02 06:47:35;;;;;;;5.63;1.33;;;22.00;85.90;;;;;;5029482;28;20172;-76
2022/09/02 06:50:01;;;;;;;2.20;1.30;;;22.40;85.30;;;;;;5028996;28;20488;-77
2022/09/02 06:52:27;;;;;;;2.73;1.30;;;21.70;86.80;;;;;;5007648;28;20290;-79
2022/09/02 06:54:55;;;;;;;2.33;1.30;;;22.20;87.00;;;;;;5031283;28;20601;-77
2022/09/02 06:57:20;;;;;;;2.60;1.33;;;21.40;87.00;;;;;;5029376;28;20188;-77
2022/09/02 06:59:47;;;;;;;2.03;1.07;;;21.40;87.50;;;;;;5028951;28;20484;-76
2022/09/02 07:02:12;;;;;;;2.00;1.00;;;21.50;86.20;;;;;;5001137;28;20994;-77
2022/09/02 07:07:24;;;;;;;2.03;1.13;;;21.50;88.50;;;;;;5018453;28;20283;-76
2022/09/02 07:09:49;;;;;;;1.87;1.10;;;22.60;86.80;;;;;;5031430;28;20502;-78
2022/09/02 07:12:16;;;;;;;2.40;1.10;;;22.50;85.90;;;;;;5015266;28;20218;-76
2022/09/02 07:14:42;;;;;;;1.93;1.00;;;23.50;83.70;;;;;;5029086;28;21059;-78
2022/09/02 07:17:09;;;;;;;2.23;1.10;;;23.70;82.30;;;;;;5014372;28;21853;-77
2022/09/02 07:19:35;;;;;;;2.90;1.30;;;23.50;81.50;;;;;;5012904;28;20549;-77
2022/09/02 07:22:04;;;;;;;2.50;1.00;;;23.80;81.20;;;;;;5037760;28;20552;-76
2022/09/02 07:24:29;;;;;;;1.60;1.00;;;23.80;80.40;;;;;;5010245;28;20266;-76
2022/09/02 07:26:55;;;;;;;2.50;1.40;;;23.50;81.20;;;;;;5011350;28;20501;-75
2022/09/02 07:29:20;;;;;;;3.63;1.87;;;23.10;82.40;;;;;;5011887;28;20172;-76
2022/09/02 07:31:47;;;;;;;1.50;1.10;;;23.00;83.60;;;;;;5034123;28;20683;-75
2022/09/02 07:34:13;;;;;;;2.30;1.00;;;22.70;83.00;;;;;;5033651;28;20202;-76
2022/09/02 07:36:39;;;;;;;3.13;1.47;;;23.30;82.50;;;;;;5031639;28;20480;-76
2022/09/02 07:39:07;;;;;;;4.37;1.03;;;23.60;81.00;;;;;;5031505;28;20418;-77
2022/09/02 07:41:34;;;;;;;1.53;1.07;;;23.50;80.70;;;;;;5032663;28;20219;-78
2022/09/02 07:43:59;;;;;;;3.67;0.90;;;24.20;80.00;;;;;;5034960;28;20916;-78
2022/09/02 07:46:25;;;;;;;5.87;1.00;;;22.80;81.40;;;;;;5016772;28;20452;-76
2022/09/02 07:48:50;;;;;;;1.70;1.10;;;23.60;80.90;;;;;;5040750;28;20669;-76
2022/09/02 07:51:19;;;;;;;2.20;0.87;;;23.80;78.90;;;;;;5053430;28;20206;-76
2022/09/02 07:53:45;;;;;;;1.90;1.10;;;23.10;80.30;;;;;;5031912;28;20314;-76
2022/09/02 07:56:12;;;;;;;1.73;0.93;;;23.10;80.40;;;;;;5032974;28;20497;-77
2022/09/02 07:58:39;;;;;;;2.50;0.87;;;23.30;79.80;;;;;;5014598;28;20290;-77
2022/09/02 08:01:05;;;;;;;1.00;0.90;;;22.90;80.80;;;;;;5019803;28;20997;-76
2022/09/02 08:03:31;;;;;;;1.50;0.90;;;23.00;81.00;;;;;;5032127;28;20430;-76
2022/09/02 08:05:56;;;;;;;1.30;1.20;;;23.20;79.20;;;;;;5010423;28;20552;-79
2022/09/02 08:08:25;;;;;;;1.63;1.00;;;23.30;80.10;;;;;;5012407;28;20180;-77
2022/09/02 08:10:51;;;;;;;1.40;0.90;;;22.90;79.80;;;;;;5012129;28;20686;-79
2022/09/02 08:13:16;;;;;;;1.47;0.90;;;23.40;79.40;;;;;;5023820;28;20466;-78
2022/09/02 08:15:43;;;;;;;2.27;0.93;;;22.90;79.50;;;;;;5020489;28;20513;-78
2022/09/02 08:18:09;;;;;;;1.00;0.73;;;21.50;82.30;;;;;;5029406;28;20191;-78
2022/09/02 08:20:34;;;;;;;2.63;0.90;;;22.40;81.20;;;;;;5031678;28;20462;-78
2022/09/02 08:23:02;;;;;;;1.73;1.30;;;22.60;81.70;;;;;;5032539;28;20180;-78
2022/09/02 08:25:28;;;;;;;3.00;1.47;;;23.50;79.20;;;;;;5019264;28;20179;-78
2022/09/02 08:27:53;;;;;;;1.80;0.90;;;24.40;79.00;;;;;;5015540;28;20500;-78
2022/09/02 08:30:19;;;;;;;7.10;1.00;;;24.50;76.90;;;;;;5001787;28;20176;-78
2022/09/02 08:32:45;;;;;;;1.20;0.83;;;24.00;77.60;;;;;;5032628;28;20191;-78
2022/09/02 08:35:10;;;;;;;1.73;0.83;;;23.70;75.70;;;;;;5017149;28;21002;-78
2022/09/02 08:37:36;;;;;;;1.50;0.90;;;23.90;78.10;;;;;;5015955;28;20998;-79
2022/09/02 08:40:06;;;;;;;1.20;0.80;;;23.40;76.10;;;;;;5023916;28;20204;-79
2022/09/02 08:42:38;;;;;;;2.30;0.90;;;23.40;78.00;;;;;;5014682;28;20981;-78
2022/09/02 08:45:09;;;;;;;2.30;0.80;;;24.10;77.90;;;;;;5026988;28;20895;-79
2022/09/02 08:47:37;;;;;;;1.20;0.80;;;24.00;75.70;;;;;;5012839;28;20414;-78
2022/09/02 08:50:10;;;;;;;3.37;1.00;;;24.20;75.10;;;;;;5012339;28;20466;-78
2022/09/02 08:52:41;;;;;;;1.33;0.80;;;23.80;74.80;;;;;;4995207;28;20466;-78
2022/09/02 08:55:13;;;;;;;1.20;0.80;;;23.70;75.40;;;;;;5012589;28;20470;-78
2022/09/02 08:57:40;;;;;;;1.27;0.80;;;23.50;74.60;;;;;;5022138;28;20469;-78
2022/09/02 09:00:06;;;;;;;1.00;0.70;;;23.40;75.50;;;;;;5031865;28;20446;-78
2022/09/02 09:03:15;;;;;;;2.27;0.90;;;22.80;75.50;;;;;;5031030;28;20443;-78
2022/09/02 09:05:51;;;;;;;2.13;0.70;;;23.30;81.20;;;;;;5032196;28;20772;-78
2022/09/02 09:08:45;;;;;;;1.80;0.97;;;24.00;75.60;;;;;;5019156;28;20414;-78
2022/09/02 09:11:27;;;;;;;1.60;0.87;;;22.80;76.80;;;;;;5012770;28;20909;-78
2022/09/02 09:14:27;;;;;;;2.07;0.97;;;23.30;77.50;;;;;;5004717;28;20421;-78
2022/09/02 09:16:58;;;;;;;5.90;1.00;;;23.50;77.90;;;;;;5049210;28;20854;-78
2022/09/02 09:19:36;;;;;;;2.77;1.10;;;23.70;75.30;;;;;;5011040;28;20433;-77
2022/09/02 09:22:02;;;;;;;3.60;0.80;;;23.40;74.50;;;;;;5023506;28;20473;-77
2022/09/02 09:24:45;;;;;;;1.23;0.80;;;22.10;76.10;;;;;;5032163;28;20410;-78
2022/09/02 09:27:18;;;;;;;1.40;0.80;;;22.70;76.30;;;;;;5032035;28;20183;-78
2022/09/02 09:29:44;;;;;;;3.63;1.63;;;23.00;78.80;;;;;;5031296;28;20422;-78
2022/09/02 09:32:22;;;;;;;2.20;0.90;;;22.70;78.90;;;;;;5028151;28;20435;-78
2022/09/02 09:34:51;;;;;;;2.40;1.27;;;23.30;77.70;;;;;;4998624;28;20172;-76
2022/09/02 09:37:36;;;;;;;1.57;0.90;;;22.70;75.50;;;;;;5015061;28;21966;-75
2022/09/02 09:40:20;;;;;;;1.87;0.80;;;22.60;75.20;;;;;;5023703;28;20453;-75
2022/09/02 09:43:09;;;;;;;2.20;0.77;;;23.50;75.40;;;;;;5031392;28;20442;-76
2022/09/02 09:45:40;;;;;;;1.97;0.70;;;23.10;77.70;;;;;;5016722;28;20429;-75
2022/09/02 09:48:15;;;;;;;1.50;0.90;;;23.80;76.20;;;;;;5031219;28;20418;-75
2022/09/02 09:50:44;;;;;;;6.20;1.20;;;23.50;73.90;;;;;;5014030;28;20445;-75
2022/09/02 09:53:34;;;;;;;1.73;0.90;;;21.10;78.70;;;;;;5031035;28;20501;-77
2022/09/02 09:56:05;;;;;;;2.07;0.73;;;20.60;80.70;;;;;;5018125;28;20477;-75
2022/09/02 09:58:39;;;;;;;2.90;0.87;;;20.10;81.50;;;;;;5012283;28;20416;-76
2022/09/02 10:01:25;;;;;;;4.00;0.83;;;20.30;82.90;;;;;;5004392;28;20945;-75
2022/09/02 10:03:55;;;;;;;3.00;0.90;;;20.00;81.20;;;;;;5051549;28;20558;-76
2022/09/02 10:06:29;;;;;;;1.00;0.67;;;19.60;82.90;;;;;;5048804;28;20410;-76
2022/09/02 10:08:58;;;;;;;1.40;0.80;;;19.20;84.20;;;;;;5031372;28;20407;-76
2022/09/02 10:11:32;;;;;;;2.30;0.80;;;18.70;86.90;;;;;;5031183;28;20460;-75
2022/09/02 10:14:01;;;;;;;1.30;0.80;;;19.00;85.50;;;;;;5032790;28;20414;-78
2022/09/02 10:17:00;;;;;;;2.23;0.97;;;19.10;84.60;;;;;;5009135;28;20472;-78
2022/09/02 10:19:33;;;;;;;2.90;0.90;;;19.00;84.90;;;;;;5003091;28;20831;-79
2022/09/02 10:22:31;;;;;;;1.30;0.90;;;18.70;85.60;;;;;;5004361;28;20561;-79
2022/09/02 10:25:06;;;;;;;2.00;0.87;;;18.50;87.00;;;;;;5023547;28;20451;-79
2022/09/02 10:28:08;;;;;;;5.27;1.00;;;18.40;86.60;;;;;;5029729;28;20403;-79
2022/09/02 10:31:04;;;;;;;1.30;0.90;;;18.30;87.40;;;;;;4944146;29;20505;-77
2022/09/02 10:33:44;;;;;;;1.40;0.83;;;18.60;88.60;;;;;;4991446;28;20425;-78
2022/09/02 10:36:18;;;;;;;1.27;0.90;;;18.90;85.00;;;;;;5031471;28;20411;-79
2022/09/02 10:38:47;;;;;;;3.43;1.10;;;19.40;85.30;;;;;;5013905;28;20422;-79
2022/09/02 10:48:13;;;;;;;;;;;;;;;;;;;;;
2022/09/02 11:17:35;;;;;;;1.50;1.20;;;19.80;83.10;;;;;;5656775;22;20534;-79
2022/09/02 11:20:34;;;;;;;1.60;0.80;;;19.90;81.90;;;;;;4995912;28;20415;-80
2022/09/02 11:23:12;;;;;;;1.20;0.90;;;19.70;82.60;;;;;;4980459;28;20421;-80
2022/09/02 11:25:45;;;;;;;1.60;1.00;;;19.40;83.40;;;;;;4985087;28;20419;-80
2022/09/02 11:28:30;;;;;;;1.23;0.80;;;19.00;83.40;;;;;;4975882;28;20420;-80
2022/09/02 11:31:14;;;;;;;1.20;0.80;;;18.80;85.70;;;;;;4978018;28;20523;-79
2022/09/02 11:33:54;;;;;;;1.40;1.00;;;18.60;87.60;;;;;;4974971;28;20428;-79
2022/09/02 11:36:19;;;;;;;1.00;0.83;;;18.80;85.70;;;;;;4994305;28;20420;-79
2022/09/02 11:38:52;;;;;;;1.57;1.00;;;18.90;86.30;;;;;;4994426;28;20517;-79
2022/09/02 11:42:02;;;;;;;2.17;1.00;;;19.10;85.90;;;;;;4985334;28;20234;-79
2022/09/02 11:44:57;;;;;;;2.30;1.20;;;19.30;84.20;;;;;;4969166;28;20463;-79
2022/09/02 11:47:26;;;;;;;1.40;1.00;;;19.10;85.40;;;;;;4979279;28;21042;-78
2022/09/02 11:50:26;;;;;;;1.17;0.80;;;19.20;84.30;;;;;;4980107;28;20507;-78
2022/09/02 11:53:03;;;;;;;2.97;0.90;;;18.90;84.70;;;;;;4983020;28;20413;-77
2022/09/02 11:55:36;;;;;;;2.30;0.87;;;18.90;83.70;;;;;;4986998;28;20427;-77
2022/09/02 11:58:02;;;;;;;1.53;0.90;;;19.10;84.40;;;;;;5004429;28;20496;-78
2022/09/02 12:00:54;;;;;;;2.23;0.80;;;19.40;84.00;;;;;;4994104;28;20445;-78
2022/09/02 12:03:22;;;;;;;1.10;0.80;;;19.60;84.40;;;;;;4976268;28;20482;-78
2022/09/02 12:06:01;;;;;;;1.30;0.90;;;19.60;83.90;;;;;;4994130;28;20428;-77
2022/09/02 12:08:32;;;;;;;1.77;0.90;;;19.60;83.40;;;;;;4993870;28;20515;-79
2022/09/02 12:11:01;;;;;;;1.20;0.80;;;19.20;83.50;;;;;;4994450;28;20449;-78
2022/09/02 12:13:47;;;;;;;2.83;0.70;;;19.30;82.10;;;;;;5011590;28;20447;-78
2022/09/02 12:16:18;;;;;;;1.40;0.70;;;19.20;83.30;;;;;;5005769;28;20405;-77
2022/09/02 12:18:52;;;;;;;1.67;0.80;;;19.10;82.30;;;;;;4993937;28;21161;-78
2022/09/02 12:21:19;;;;;;;4.00;1.30;;;19.00;83.70;;;;;;4976186;28;20467;-78
2022/09/02 12:23:48;;;;;;;2.00;1.03;;;19.00;83.70;;;;;;4993870;28;20409;-78
2022/09/02 12:26:17;;;;;;;1.77;0.60;;;19.40;84.80;;;;;;4964693;28;21358;-80
2022/09/02 12:28:47;;;;;;;7.23;1.00;;;19.20;83.50;;;;;;4973950;28;20499;-78
2022/09/02 12:31:41;;;;;;;2.13;0.90;;;19.10;83.30;;;;;;4975013;28;20488;-79
2022/09/02 12:34:18;;;;;;;1.53;0.90;;;19.00;83.90;;;;;;4956180;28;20944;-79
2022/09/02 12:36:45;;;;;;;1.70;0.90;;;19.20;83.30;;;;;;4993757;28;20503;-78
2022/09/02 12:39:26;;;;;;;2.20;0.80;;;19.50;82.60;;;;;;4976144;28;20428;-81
2022/09/02 12:42:10;;;;;;;5.43;0.80;;;19.60;84.30;;;;;;4991564;28;20456;-80
2022/09/02 12:45:00;;;;;;;1.00;0.70;;;19.70;83.30;;;;;;4991147;28;20863;-80
2022/09/02 12:48:00;;;;;;;1.23;0.90;;;20.10;81.50;;;;;;4971033;28;21003;-79
2022/09/02 12:50:49;;;;;;;2.80;0.80;;;19.80;81.90;;;;;;4947499;28;20611;-79
2022/09/02 12:53:36;;;;;;;1.40;0.80;;;19.50;82.60;;;;;;4974299;28;20428;-79
2022/09/02 12:56:18;;;;;;;1.47;0.93;;;19.20;84.10;;;;;;4977804;28;20436;-80
2022/09/02 12:58:47;;;;;;;1.63;0.80;;;19.20;83.60;;;;;;4963531;28;20433;-79
2022/09/02 13:01:35;;;;;;;3.43;1.17;;;19.10;84.60;;;;;;4990531;28;20522;-79
2022/09/02 13:04:36;;;;;;;1.00;0.80;;;19.30;84.80;;;;;;4978625;28;20952;-79
2022/09/02 13:07:41;;;;;;;1.93;1.00;;;19.50;85.00;;;;;;4969669;28;20455;-80
2022/09/02 13:10:31;;;;;;;1.40;0.70;;;19.30;84.70;;;;;;4982293;28;20428;-79
2022/09/02 13:13:33;;;;;;;2.40;0.87;;;19.40;84.10;;;;;;4997280;28;20445;-79
2022/09/02 13:16:21;;;;;;;1.77;0.70;;;19.20;83.70;;;;;;4972157;28;20830;-79
2022/09/02 13:19:11;;;;;;;1.57;0.73;;;18.90;85.30;;;;;;4976101;28;20429;-79
2022/09/02 13:22:00;;;;;;;3.43;1.03;;;19.40;85.50;;;;;;4985194;28;20471;-79
2022/09/02 13:25:04;;;;;;;1.10;0.70;;;20.50;82.20;;;;;;4974712;28;20551;-79
2022/09/02 13:28:15;;;;;;;1.47;0.70;;;20.80;80.70;;;;;;4969035;28;20424;-79
2022/09/02 13:31:05;;;;;;;1.00;0.70;;;21.50;78.30;;;;;;4954811;28;20559;-78
2022/09/02 13:33:31;;;;;;;1.60;0.90;;;21.10;79.20;;;;;;4998154;28;20487;-79
2022/09/02 13:35:58;;;;;;;1.73;0.80;;;21.80;79.20;;;;;;5004514;28;20429;-78
2022/09/02 13:38:26;;;;;;;4.10;1.00;;;21.30;78.80;;;;;;5033659;28;20487;-78
2022/09/02 13:40:52;;;;;;;1.87;1.10;;;20.80;78.80;;;;;;4997842;28;20496;-78
2022/09/02 13:43:20;;;;;;;2.70;1.00;;;20.20;79.30;;;;;;4992541;28;20435;-77
2022/09/02 13:45:47;;;;;;;1.13;0.80;;;20.10;80.60;;;;;;4992635;28;20460;-78
2022/09/02 13:48:23;;;;;;;2.83;0.70;;;20.00;80.60;;;;;;4974743;28;20982;-77
2022/09/02 13:50:58;;;;;;;1.17;0.70;;;19.70;82.50;;;;;;4975773;28;20983;-78
2022/09/02 13:53:39;;;;;;;1.33;0.70;;;19.40;82.80;;;;;;4992585;28;20427;-78
2022/09/02 13:56:08;;;;;;;1.83;0.90;;;19.20;83.50;;;;;;4978250;28;20435;-79
2022/09/02 13:58:41;;;;;;;1.00;0.73;;;19.10;84.70;;;;;;4976782;28;20431;-79
2022/09/02 14:01:22;;;;;;;1.70;0.90;;;19.00;84.00;;;;;;4980068;28;21007;-77
2022/09/02 14:03:52;;;;;;;1.20;0.70;;;18.90;84.20;;;;;;4984971;28;20440;-77
2022/09/02 14:06:22;;;;;;;1.10;0.73;;;19.00;84.30;;;;;;4973344;28;20440;-77
2022/09/02 14:08:52;;;;;;;1.20;0.70;;;19.00;84.80;;;;;;4972483;28;20926;-78
2022/09/02 14:11:18;;;;;;;1.33;0.70;;;19.00;84.10;;;;;;4994883;28;20451;-78
2022/09/02 14:13:47;;;;;;;1.13;0.70;;;19.00;84.70;;;;;;5001915;28;20424;-80
2022/09/02 14:16:32;;;;;;;1.10;0.67;;;19.20;84.20;;;;;;4975237;28;20209;-79
2022/09/02 14:19:09;;;;;;;3.33;0.70;;;19.40;83.70;;;;;;4971638;28;20468;-78
2022/09/02 14:21:37;;;;;;;1.17;0.70;;;19.20;84.30;;;;;;4987577;28;20472;-78
2022/09/02 14:24:04;;;;;;;1.00;0.70;;;19.00;84.60;;;;;;4976219;28;20414;-78
2022/09/02 14:26:36;;;;;;;1.67;0.80;;;19.00;84.90;;;;;;4961696;28;20511;-78
2022/09/02 14:29:07;;;;;;;1.13;0.80;;;19.00;86.10;;;;;;4973151;28;20428;-78
2022/09/02 14:31:33;;;;;;;1.63;0.70;;;19.00;86.20;;;;;;5003203;28;20442;-78
2022/09/02 14:34:00;;;;;;;1.20;0.80;;;18.60;85.20;;;;;;4997840;28;20858;-78
2022/09/02 14:36:34;;;;;;;1.30;0.80;;;18.70;84.50;;;;;;4995443;28;20206;-78
2022/09/02 14:39:17;;;;;;;2.70;1.00;;;18.50;85.70;;;;;;4991756;28;20452;-78
2022/09/02 14:41:48;;;;;;;1.73;0.87;;;18.50;87.10;;;;;;4997247;28;20551;-78
2022/09/02 14:44:22;;;;;;;1.30;0.90;;;18.80;86.40;;;;;;4994936;28;20869;-79
2022/09/02 14:46:52;;;;;;;2.67;0.80;;;18.90;85.40;;;;;;4991640;28;20412;-79
2022/09/02 14:49:26;;;;;;;0.90;0.70;;;18.90;85.50;;;;;;4970058;28;20417;-79
2022/09/02 14:52:09;;;;;;;1.57;1.07;;;18.90;84.70;;;;;;5003951;28;20440;-78
2022/09/02 14:54:44;;;;;;;4.90;0.90;;;18.80;84.50;;;;;;4997314;28;20417;-79
2022/09/02 14:57:30;;;;;;;2.07;1.20;;;18.60;84.70;;;;;;4989915;28;20499;-79
2022/09/02 14:59:58;;;;;;;3.47;0.80;;;18.60;85.30;;;;;;4975921;28;20428;-79
2022/09/02 15:02:26;;;;;;;1.40;0.77;;;18.70;84.80;;;;;;4976077;28;20440;-79
2022/09/02 15:04:56;;;;;;;0.90;0.70;;;18.70;85.20;;;;;;4975789;28;20402;-79
2022/09/02 15:07:22;;;;;;;1.40;0.70;;;18.80;85.30;;;;;;4975783;28;20982;-79
2022/09/02 15:09:51;;;;;;;1.20;0.80;;;19.10;84.80;;;;;;4982537;28;20486;-80
2022/09/02 15:12:19;;;;;;;1.03;0.70;;;19.60;84.10;;;;;;4998740;28;20512;-79
2022/09/02 15:14:45;;;;;;;3.63;0.77;;;20.20;81.80;;;;;;4999051;28;20476;-80
2022/09/02 15:17:14;;;;;;;1.13;0.73;;;20.40;81.30;;;;;;4999068;28;20433;-80
2022/09/02 15:19:39;;;;;;;1.67;0.87;;;20.00;81.50;;;;;;5008538;28;20899;-79
2022/09/02 15:22:05;;;;;;;0.97;0.83;;;20.00;81.30;;;;;;5018463;28;20520;-79
2022/09/02 15:24:31;;;;;;;0.90;0.70;;;19.60;82.60;;;;;;5018650;28;20203;-80
2022/09/02 15:26:56;;;;;;;8.20;0.90;;;19.50;82.70;;;;;;5018271;28;20181;-79
2022/09/02 15:29:22;;;;;;;0.90;0.60;;;19.20;84.40;;;;;;5017719;28;20193;-79
2022/09/02 15:31:50;;;;;;;2.03;0.70;;;19.20;83.90;;;;;;5017271;28;20722;-80
2022/09/02 15:34:16;;;;;;;1.30;0.90;;;19.00;83.70;;;;;;5018294;28;20180;-79
2022/09/02 15:36:41;;;;;;;2.37;1.03;;;19.00;83.80;;;;;;5017826;28;20407;-79
2022/09/02 15:39:07;;;;;;;1.30;0.67;;;18.90;84.40;;;;;;5017522;28;20640;-79
2022/09/02 15:41:33;;;;;;;1.40;0.80;;;18.70;84.00;;;;;;4983511;28;20214;-79
2022/09/02 15:43:59;;;;;;;1.00;0.60;;;18.50;83.80;;;;;;4978672;28;20178;-79
2022/09/02 15:46:27;;;;;;;1.43;0.90;;;18.40;83.80;;;;;;4978415;28;20540;-79
2022/09/02 15:48:53;;;;;;;1.83;0.80;;;18.30;84.20;;;;;;4960260;28;20324;-79
2022/09/02 15:51:21;;;;;;;2.10;0.80;;;18.10;85.50;;;;;;4977774;28;20449;-79
2022/09/02 15:53:52;;;;;;;1.87;1.07;;;18.10;85.60;;;;;;4978437;28;20424;-79
2022/09/02 15:56:19;;;;;;;2.23;1.00;;;18.10;85.60;;;;;;4960613;28;20500;-79
2022/09/02 15:58:45;;;;;;;1.80;0.93;;;18.10;86.30;;;;;;4978316;28;20418;-79
2022/09/02 16:01:11;;;;;;;3.10;0.90;;;18.20;86.60;;;;;;4977929;28;20461;-79
2022/09/02 16:03:37;;;;;;;3.23;0.90;;;18.10;87.00;;;;;;4978353;28;20178;-79
2022/09/02 16:06:06;;;;;;;1.40;0.70;;;18.20;87.00;;;;;;4978583;28;20221;-79
2022/09/02 16:08:33;;;;;;;1.00;0.80;;;18.20;87.30;;;;;;4960512;28;20182;-80
2022/09/02 16:11:06;;;;;;;1.33;1.00;;;18.20;88.30;;;;;;4978009;28;20847;-79
2022/09/02 16:13:33;;;;;;;2.13;0.80;;;18.10;88.40;;;;;;4977715;28;20461;-79
2022/09/02 16:16:05;;;;;;;0.90;0.70;;;18.20;89.00;;;;;;4983358;28;20409;-79
2022/09/02 16:18:31;;;;;;;1.50;0.97;;;18.20;88.90;;;;;;4980452;28;20470;-79
2022/09/02 16:20:57;;;;;;;3.80;1.40;;;18.10;90.30;;;;;;4979808;28;20492;-80
2022/09/02 16:23:22;;;;;;;0.90;0.70;;;17.90;90.60;;;;;;4978602;28;20410;-80
2022/09/02 16:26:04;;;;;;;1.00;0.70;;;18.00;90.50;;;;;;4973974;28;20665;-79
2022/09/02 16:28:33;;;;;;;1.10;0.80;;;18.00;90.70;;;;;;4972682;28;20692;-79
2022/09/02 18:03:51;;;;;;;2.80;1.70;;;14.70;96.30;;;;;;5510775;23;20541;-77
2022/09/02 20:37:31;;;;;;;3.53;1.63;;;10.80;96.30;;;;;;5032370;28;20470;-77
2022/09/02 20:40:03;;;;;;;2.43;1.70;;;10.60;96.30;;;;;;5032727;28;20937;-78
2022/09/02 20:42:37;;;;;;;2.77;1.53;;;10.60;96.30;;;;;;5032603;28;21004;-77
2022/09/02 20:45:30;;;;;;;10.83;2.00;;;10.50;96.30;;;;;;5033573;28;20453;-79
2022/09/02 20:48:26;;;;;;;7.80;1.70;;;10.20;96.30;;;;;;5027046;28;20423;-76
2022/09/02 20:51:14;;;;;;;3.00;2.00;;;10.20;96.30;;;;;;5032643;28;20919;-80
2022/09/02 20:53:52;;;;;;;2.20;1.70;;;10.10;96.30;;;;;;5033012;28;20418;-80
2022/09/02 20:56:33;;;;;;;1.83;1.70;;;10.10;96.30;;;;;;5032627;28;20419;-81
2022/09/02 20:59:21;;;;;;;4.03;1.73;;;10.00;96.30;;;;;;5034104;28;20410;-79
2022/09/02 21:01:48;;;;;;;3.60;1.23;;;10.10;96.30;;;;;;5033609;28;21024;-80
2022/09/02 21:04:30;;;;;;;2.73;1.70;;;10.30;96.30;;;;;;5034072;28;20476;-81
2022/09/02 21:07:18;;;;;;;3.37;1.10;;;10.50;96.30;;;;;;5031936;28;20450;-78
2022/09/02 21:10:05;;;;;;;4.03;1.50;;;10.40;96.30;;;;;;5022172;28;20487;-78
2022/09/02 21:12:32;;;;;;;10.07;1.73;;;10.30;96.30;;;;;;5003457;28;20447;-79
2022/09/02 21:15:05;;;;;;;7.80;1.80;;;10.30;96.30;;;;;;5013245;28;21026;-80
2022/09/02 21:17:36;;;;;;;11.40;1.90;;;10.30;96.30;;;;;;4996476;28;20420;-78
2022/09/02 21:20:28;;;;;;;1.73;1.20;;;10.30;96.30;;;;;;5011922;28;20498;-78
2022/09/02 21:22:58;;;;;;;7.63;1.80;;;10.50;96.30;;;;;;5012017;28;20804;-79
2022/09/02 21:25:31;;;;;;;2.37;1.73;;;10.70;96.30;;;;;;5013131;28;20506;-78
2022/09/02 21:28:10;;;;;;;1.30;1.10;;;10.80;96.30;;;;;;5006650;28;20426;-80
2022/09/02 21:30:39;;;;;;;1.60;1.40;;;10.80;96.30;;;;;;5011895;28;20443;-78
2022/09/02 21:33:09;;;;;;;3.17;1.17;;;10.90;96.30;;;;;;5012275;28;20416;-80
2022/09/02 21:35:37;;;;;;;1.60;1.20;;;10.80;96.30;;;;;;5013093;28;20412;-79
2022/09/02 21:38:26;;;;;;;2.37;1.40;;;10.90;96.30;;;;;;5013239;28;20412;-79
2022/09/02 21:41:16;;;;;;;1.90;1.23;;;10.90;96.30;;;;;;5019270;28;20462;-78
2022/09/02 21:43:44;;;;;;;3.47;1.10;;;10.90;96.30;;;;;;5011726;28;20419;-77
2022/09/02 21:46:27;;;;;;;4.40;1.27;;;10.90;96.30;;;;;;5011752;28;21100;-78
2022/09/02 21:49:02;;;;;;;5.40;1.40;;;10.90;96.30;;;;;;5012653;28;20424;-79
2022/09/02 21:51:47;;;;;;;2.17;1.40;;;10.90;96.30;;;;;;5011132;28;20442;-79
2022/09/02 21:54:23;;;;;;;3.17;1.20;;;10.80;96.30;;;;;;5011393;28;20427;-80
2022/09/02 21:57:27;;;;;;;1.87;0.97;;;10.70;96.30;;;;;;5010872;28;20911;-77
2022/09/02 22:00:05;;;;;;;1.30;1.20;;;10.80;96.30;;;;;;4992136;28;20510;-78
2022/09/02 22:02:56;;;;;;;1.50;1.10;;;10.80;96.30;;;;;;5012925;28;20467;-78